Time;durP1;ratioP1;P1;durP2;ratioP2;P2;SDS_P1;SDS_P2;PMS_P1;PMS_P2;Temp;Humidity;BMP_temperature;BMP_pressure;BME280_temperature;BME280_humidity;BME280_pressure;Samples;Min_cycle;Max_cycle;Signal;HPM_P1;HPM_P2
2022/06/29 00:02:09;;;;;;;0.30;0.30;;;20.60;99.90;;;;;;4444625;32;20069;-68
2022/06/29 00:04:34;;;;;;;1.08;0.57;;;20.70;99.90;;;;;;4446624;32;20032;-68
2022/06/29 00:06:59;;;;;;;0.30;0.30;;;20.40;99.90;;;;;;4445750;32;20069;-68
2022/06/29 00:09:25;;;;;;;0.20;0.20;;;20.40;99.90;;;;;;4435528;32;20069;-68
2022/06/29 00:11:50;;;;;;;0.40;0.40;;;20.40;99.90;;;;;;4438079;32;20065;-68
2022/06/29 00:14:16;;;;;;;0.60;0.40;;;20.40;99.90;;;;;;4446630;32;20477;-68
2022/06/29 00:16:41;;;;;;;0.30;0.30;;;20.40;99.90;;;;;;4446287;32;20085;-68
2022/06/29 00:19:07;;;;;;;0.20;0.20;;;20.40;99.90;;;;;;4441394;32;20143;-68
2022/06/29 00:21:33;;;;;;;0.25;0.25;;;20.30;99.90;;;;;;4429755;32;20803;-68
2022/06/29 00:23:59;;;;;;;0.35;0.35;;;20.20;99.90;;;;;;4417652;32;20061;-68
2022/06/29 00:26:25;;;;;;;0.30;0.30;;;20.30;99.90;;;;;;4439015;32;20104;-68
2022/06/29 00:28:51;;;;;;;0.40;0.40;;;20.40;99.90;;;;;;4435991;32;20074;-68
2022/06/29 00:31:17;;;;;;;0.20;0.20;;;20.40;99.90;;;;;;4440678;32;20077;-68
2022/06/29 00:33:42;;;;;;;0.22;0.22;;;20.40;99.90;;;;;;4439191;32;20085;-68
2022/06/29 00:36:08;;;;;;;0.22;0.22;;;20.30;99.90;;;;;;4443728;32;20093;-68
2022/06/29 00:38:33;;;;;;;0.32;0.32;;;20.20;99.90;;;;;;4439425;32;20571;-68
2022/06/29 00:40:58;;;;;;;0.25;0.25;;;20.20;99.90;;;;;;4440017;32;20135;-68
2022/06/29 00:43:24;;;;;;;0.40;0.40;;;20.20;99.90;;;;;;4435472;32;20134;-68
2022/06/29 00:45:50;;;;;;;0.20;0.20;;;20.10;99.90;;;;;;4440992;32;20064;-68
2022/06/29 00:48:16;;;;;;;0.30;0.30;;;20.20;99.90;;;;;;4441041;32;20088;-68
2022/06/29 00:50:44;;;;;;;0.20;0.20;;;20.10;99.90;;;;;;4437343;32;20081;-69
2022/06/29 00:53:14;;;;;;;0.68;0.62;;;20.10;99.90;;;;;;4408185;32;20458;-68
2022/06/29 00:55:41;;;;;;;0.20;0.20;;;20.10;99.90;;;;;;4423341;32;20200;-68
2022/06/29 00:58:09;;;;;;;0.30;0.30;;;20.10;99.90;;;;;;4441259;32;20076;-68
2022/06/29 01:00:35;;;;;;;0.30;0.30;;;20.10;99.90;;;;;;4437322;32;20077;-68
2022/06/29 01:03:01;;;;;;;0.22;0.22;;;20.10;99.90;;;;;;4443481;32;20591;-68
2022/06/29 01:05:28;;;;;;;0.30;0.30;;;20.10;99.90;;;;;;4435358;32;20127;-68
2022/06/29 01:07:54;;;;;;;0.30;0.30;;;20.10;99.90;;;;;;4447037;32;20085;-68
2022/06/29 01:10:20;;;;;;;0.30;0.30;;;20.00;99.90;;;;;;4436145;32;20156;-68
2022/06/29 01:12:53;;;;;;;0.20;0.20;;;20.00;99.90;;;;;;4442204;32;20065;-68
2022/06/29 01:15:19;;;;;;;0.20;0.20;;;19.90;99.90;;;;;;4430486;32;20618;-68
2022/06/29 01:17:45;;;;;;;0.30;0.30;;;19.90;99.90;;;;;;4443485;32;20065;-68
2022/06/29 01:20:12;;;;;;;0.20;0.20;;;19.90;99.90;;;;;;4448606;32;20081;-68
2022/06/29 01:22:39;;;;;;;0.20;0.20;;;20.00;99.90;;;;;;4418020;32;20145;-68
2022/06/29 01:25:05;;;;;;;3.62;0.55;;;20.00;99.90;;;;;;4431033;32;20074;-69
2022/06/29 01:27:31;;;;;;;0.30;0.30;;;20.00;99.90;;;;;;4442899;32;20065;-67
2022/06/29 01:29:56;;;;;;;0.32;0.30;;;20.00;99.90;;;;;;4434402;32;20066;-67
2022/06/29 01:32:22;;;;;;;0.20;0.20;;;20.00;99.90;;;;;;4435488;32;86467;-67
2022/06/29 01:34:47;;;;;;;0.22;0.22;;;19.90;99.90;;;;;;4439404;32;20100;-67
2022/06/29 01:37:13;;;;;;;1.37;0.60;;;19.90;99.90;;;;;;4441484;32;20082;-67
2022/06/29 01:39:40;;;;;;;0.40;0.40;;;19.90;99.90;;;;;;4436804;32;20125;-67
2022/06/29 01:42:08;;;;;;;0.20;0.20;;;19.80;99.90;;;;;;4430422;32;20553;-67
2022/06/29 01:44:34;;;;;;;0.20;0.20;;;19.80;99.90;;;;;;4437982;32;20122;-67
2022/06/29 01:47:01;;;;;;;0.20;0.20;;;19.80;99.90;;;;;;4432953;32;20077;-67
2022/06/29 01:49:27;;;;;;;0.40;0.32;;;19.80;99.90;;;;;;4443683;32;20168;-68
2022/06/29 01:51:53;;;;;;;0.37;0.37;;;19.70;99.90;;;;;;4420410;32;20069;-67
2022/06/29 01:54:19;;;;;;;0.13;0.13;;;19.70;99.90;;;;;;4417026;32;20096;-67
2022/06/29 01:56:44;;;;;;;0.37;0.37;;;19.70;99.90;;;;;;4440143;32;20065;-67
2022/06/29 01:59:10;;;;;;;0.50;0.50;;;19.70;99.90;;;;;;4444804;32;20411;-67
2022/06/29 02:01:35;;;;;;;0.30;0.30;;;19.70;99.90;;;;;;4436398;32;20060;-67
2022/06/29 02:04:01;;;;;;;0.37;0.37;;;19.70;99.90;;;;;;4436959;32;20092;-67
2022/06/29 02:06:26;;;;;;;0.28;0.28;;;19.80;99.90;;;;;;4436995;32;20108;-67
2022/06/29 02:08:52;;;;;;;0.20;0.20;;;19.70;99.90;;;;;;4438578;32;20508;-67
2022/06/29 02:11:19;;;;;;;0.73;0.25;;;19.70;99.90;;;;;;4440275;32;20092;-67
2022/06/29 02:13:46;;;;;;;0.40;0.40;;;19.60;99.90;;;;;;4437019;32;20430;-67
2022/06/29 02:16:11;;;;;;;0.20;0.20;;;19.60;99.90;;;;;;4443448;32;20127;-67
2022/06/29 02:18:37;;;;;;;0.28;0.28;;;19.50;99.90;;;;;;4443607;32;20128;-67
2022/06/29 02:21:02;;;;;;;0.40;0.40;;;19.50;99.90;;;;;;4436296;32;20972;-67
2022/06/29 02:23:28;;;;;;;0.20;0.20;;;19.40;99.90;;;;;;4415945;32;20065;-67
2022/06/29 02:25:53;;;;;;;3.97;0.93;;;19.40;99.90;;;;;;4430735;32;20157;-67
2022/06/29 02:28:19;;;;;;;4.68;0.57;;;19.50;99.90;;;;;;4444170;32;20180;-67
2022/06/29 02:34:44;;;;;;;0.30;0.30;;;19.30;99.90;;;;;;4432198;32;20516;-67
2022/06/29 02:36:15;;;;;;;0.30;0.30;;;19.30;99.90;;;;;;4435901;32;20083;-67
2022/06/29 02:38:40;;;;;;;0.45;0.25;;;19.20;99.90;;;;;;4447689;32;20089;-67
2022/06/29 02:41:06;;;;;;;0.30;0.30;;;19.20;99.90;;;;;;4436666;32;20065;-67
2022/06/29 02:43:31;;;;;;;0.80;0.47;;;19.20;99.90;;;;;;4442598;32;20065;-67
2022/06/29 02:45:57;;;;;;;0.30;0.30;;;19.30;99.90;;;;;;4444689;32;20069;-67
2022/06/29 02:48:23;;;;;;;2.53;0.60;;;19.30;99.90;;;;;;4440774;32;20061;-67
2022/06/29 02:50:48;;;;;;;0.32;0.32;;;19.30;99.90;;;;;;4435806;32;20069;-67
2022/06/29 02:53:13;;;;;;;0.47;0.47;;;19.30;99.90;;;;;;4411284;32;20143;-67
2022/06/29 02:55:39;;;;;;;0.20;0.20;;;19.20;99.90;;;;;;4425856;32;20073;-67
2022/06/29 02:58:05;;;;;;;0.40;0.40;;;19.30;99.90;;;;;;4444532;32;20093;-67
2022/06/29 03:00:30;;;;;;;0.22;0.22;;;19.30;99.90;;;;;;4447541;32;20104;-67
2022/06/29 03:02:56;;;;;;;0.20;0.20;;;19.20;99.90;;;;;;4444216;32;20081;-67
2022/06/29 03:05:21;;;;;;;0.30;0.30;;;19.10;99.90;;;;;;4436910;32;20066;-67
2022/06/29 03:07:47;;;;;;;4.75;0.68;;;19.00;99.90;;;;;;4445180;32;20068;-67
2022/06/29 03:10:12;;;;;;;0.25;0.25;;;19.00;99.90;;;;;;4445065;32;20469;-67
2022/06/29 03:12:38;;;;;;;0.30;0.30;;;19.00;99.90;;;;;;4439240;32;20072;-67
2022/06/29 03:15:04;;;;;;;0.30;0.30;;;19.00;99.90;;;;;;4437537;32;20065;-67
2022/06/29 03:17:29;;;;;;;0.30;0.30;;;19.00;99.90;;;;;;4441504;32;20124;-67
2022/06/29 03:19:55;;;;;;;0.30;0.30;;;19.00;99.90;;;;;;4436854;32;20297;-67
2022/06/29 03:22:20;;;;;;;0.30;0.30;;;19.00;99.90;;;;;;4425946;32;20126;-67
2022/06/29 03:24:46;;;;;;;0.40;0.30;;;19.00;99.90;;;;;;4418812;32;20508;-67
2022/06/29 03:27:11;;;;;;;0.30;0.30;;;19.00;99.90;;;;;;4441510;32;20692;-67
2022/06/29 03:29:37;;;;;;;1.08;0.68;;;19.00;99.90;;;;;;4438503;32;20433;-67
2022/06/29 03:32:02;;;;;;;0.35;0.35;;;18.90;99.90;;;;;;4437806;32;20072;-67
2022/06/29 03:34:28;;;;;;;0.47;0.32;;;19.00;99.90;;;;;;4439813;32;20073;-67
2022/06/29 03:36:53;;;;;;;0.43;0.43;;;19.10;99.90;;;;;;4437298;32;20085;-67
2022/06/29 03:39:19;;;;;;;0.50;0.50;;;19.10;99.90;;;;;;4445780;32;20146;-67
2022/06/29 03:41:44;;;;;;;0.30;0.30;;;19.00;99.90;;;;;;4438099;32;20104;-67
2022/06/29 03:44:10;;;;;;;1.60;0.88;;;18.90;99.90;;;;;;4437101;32;20462;-67
2022/06/29 03:46:35;;;;;;;0.32;0.32;;;18.90;99.90;;;;;;4437516;32;20135;-67
2022/06/29 03:49:01;;;;;;;0.25;0.25;;;19.00;99.90;;;;;;4440988;32;20117;-67
2022/06/29 03:51:26;;;;;;;2.47;0.40;;;19.00;99.90;;;;;;4430905;32;20128;-68
2022/06/29 03:53:52;;;;;;;0.52;0.50;;;19.00;99.90;;;;;;4414271;32;20241;-67
2022/06/29 03:56:18;;;;;;;0.73;0.70;;;19.00;99.90;;;;;;4438086;32;20081;-67
2022/06/29 03:58:43;;;;;;;0.88;0.30;;;19.00;99.90;;;;;;4443681;32;20481;-67
2022/06/29 04:01:09;;;;;;;0.40;0.40;;;19.00;99.90;;;;;;4443924;32;20073;-67
2022/06/29 04:03:34;;;;;;;0.20;0.20;;;19.10;99.90;;;;;;4439902;32;20073;-67
2022/06/29 04:06:00;;;;;;;0.45;0.40;;;19.10;99.90;;;;;;4435948;32;20398;-67
2022/06/29 04:08:25;;;;;;;0.37;0.37;;;19.10;99.90;;;;;;4436082;32;20057;-67
2022/06/29 04:10:50;;;;;;;0.30;0.30;;;19.10;99.90;;;;;;4445216;32;20081;-67
2022/06/29 04:13:16;;;;;;;0.30;0.30;;;19.10;99.90;;;;;;4446033;32;20077;-67
2022/06/29 04:15:41;;;;;;;0.30;0.30;;;19.10;99.90;;;;;;4443288;32;20072;-67
2022/06/29 04:18:07;;;;;;;0.30;0.30;;;19.10;99.90;;;;;;4446259;32;20124;-67
2022/06/29 04:21:33;;;;;;;0.30;0.30;;;19.10;99.90;;;;;;4441330;32;20122;-67
2022/06/29 04:23:18;;;;;;;0.40;0.40;;;19.10;99.90;;;;;;4377809;32;20565;-67
2022/06/29 04:25:44;;;;;;;0.32;0.32;;;19.20;99.90;;;;;;4390195;32;20110;-67
2022/06/29 04:28:09;;;;;;;1.00;0.88;;;19.30;99.90;;;;;;4394106;32;20106;-68
2022/06/29 04:30:35;;;;;;;0.30;0.30;;;19.30;99.90;;;;;;4401611;32;20324;-68
2022/06/29 04:33:00;;;;;;;1.27;0.60;;;19.40;99.90;;;;;;4394993;32;20599;-67
2022/06/29 04:35:26;;;;;;;0.28;0.28;;;19.40;99.90;;;;;;4423077;32;20089;-67
2022/06/29 04:37:51;;;;;;;0.20;0.20;;;19.40;99.90;;;;;;4442533;32;20077;-68
2022/06/29 04:40:17;;;;;;;0.30;0.30;;;19.50;99.90;;;;;;4440692;32;20139;-67
2022/06/29 04:42:42;;;;;;;0.30;0.30;;;19.60;99.90;;;;;;4436321;32;20085;-67
2022/06/29 04:46:19;;;;;;;0.30;0.30;;;19.70;99.90;;;;;;4437122;32;20064;-67
2022/06/29 04:47:54;;;;;;;0.65;0.37;;;19.70;99.90;;;;;;4437105;32;20072;-67
2022/06/29 04:50:19;;;;;;;0.70;0.50;;;19.70;99.90;;;;;;4437587;32;20115;-67
2022/06/29 04:52:45;;;;;;;0.47;0.47;;;19.60;99.90;;;;;;4400860;32;20068;-67
2022/06/29 04:55:10;;;;;;;0.30;0.30;;;19.70;99.90;;;;;;4381971;32;20100;-67
2022/06/29 04:57:36;;;;;;;0.30;0.30;;;19.70;99.90;;;;;;4430005;32;20068;-67
2022/06/29 05:00:02;;;;;;;0.20;0.20;;;19.70;99.90;;;;;;4435981;32;20627;-67
2022/06/29 05:02:28;;;;;;;0.30;0.30;;;19.80;99.90;;;;;;4418963;32;20093;-67
2022/06/29 05:04:53;;;;;;;0.30;0.30;;;19.90;99.90;;;;;;4399029;32;20223;-67
2022/06/29 05:07:18;;;;;;;0.47;0.47;;;20.00;99.90;;;;;;4394540;32;20329;-67
2022/06/29 05:09:45;;;;;;;0.57;0.50;;;20.10;99.90;;;;;;4387171;32;20611;-67
2022/06/29 05:12:11;;;;;;;1.45;0.80;;;20.10;99.90;;;;;;4390219;32;20222;-67
2022/06/29 05:14:36;;;;;;;0.57;0.57;;;20.20;99.90;;;;;;4387622;32;20093;-67
2022/06/29 05:17:02;;;;;;;0.20;0.20;;;20.30;99.90;;;;;;4402718;32;20262;-67
2022/06/29 05:19:27;;;;;;;0.32;0.32;;;20.40;99.90;;;;;;4344501;32;20339;-67
2022/06/29 05:21:53;;;;;;;0.40;0.40;;;20.40;99.90;;;;;;4342437;32;20231;-67
2022/06/29 05:24:18;;;;;;;0.50;0.50;;;20.40;99.90;;;;;;4308390;32;20203;-67
2022/06/29 05:26:44;;;;;;;0.30;0.30;;;20.50;99.90;;;;;;4339506;32;21015;-67
2022/06/29 05:29:10;;;;;;;0.30;0.30;;;20.50;99.90;;;;;;4339530;32;20612;-67
2022/06/29 05:31:36;;;;;;;0.40;0.40;;;20.60;99.90;;;;;;4336574;32;20341;-67
2022/06/29 05:34:01;;;;;;;0.20;0.20;;;20.80;99.90;;;;;;4353867;32;20348;-67
2022/06/29 05:36:28;;;;;;;0.30;0.30;;;20.90;99.90;;;;;;4359758;32;20995;-67
2022/06/29 05:38:56;;;;;;;0.30;0.30;;;21.10;99.90;;;;;;4363212;32;20247;-67
2022/06/29 05:41:22;;;;;;;0.30;0.30;;;21.10;99.90;;;;;;4382379;32;21058;-67
2022/06/29 05:43:51;;;;;;;0.20;0.20;;;21.10;99.90;;;;;;4387113;32;20172;-67
2022/06/29 05:46:20;;;;;;;0.32;0.32;;;21.10;99.90;;;;;;4403431;32;20509;-67
2022/06/29 05:48:46;;;;;;;0.20;0.20;;;21.10;99.90;;;;;;4401882;32;20306;-67
2022/06/29 05:51:11;;;;;;;0.30;0.30;;;21.20;99.90;;;;;;4399524;32;20969;-68
2022/06/29 05:53:37;;;;;;;0.20;0.20;;;21.30;99.90;;;;;;4401467;32;20082;-68
2022/06/29 05:56:02;;;;;;;0.20;0.20;;;21.30;99.90;;;;;;4414488;32;20451;-69
2022/06/29 05:58:28;;;;;;;0.30;0.30;;;21.30;99.90;;;;;;4411128;32;20332;-69
2022/06/29 06:00:53;;;;;;;0.28;0.28;;;21.30;99.90;;;;;;4405561;32;20164;-69
2022/06/29 06:03:19;;;;;;;0.82;0.70;;;21.40;99.90;;;;;;4392856;32;20310;-69
2022/06/29 06:05:45;;;;;;;0.40;0.40;;;21.40;99.90;;;;;;4400318;32;20563;-69
2022/06/29 06:08:13;;;;;;;0.35;0.30;;;21.50;99.90;;;;;;4412254;32;20069;-69
2022/06/29 06:10:38;;;;;;;0.50;0.45;;;21.60;99.90;;;;;;4423965;32;20077;-69
2022/06/29 06:13:05;;;;;;;0.25;0.25;;;21.70;99.90;;;;;;4416273;32;20557;-69
2022/06/29 06:15:32;;;;;;;0.40;0.40;;;21.70;99.90;;;;;;4423510;32;20085;-69
2022/06/29 06:17:58;;;;;;;0.13;0.13;;;21.80;99.90;;;;;;4414882;32;20094;-69
2022/06/29 06:20:23;;;;;;;0.22;0.22;;;21.80;99.90;;;;;;4406599;32;20164;-68
2022/06/29 06:22:48;;;;;;;0.65;0.55;;;21.70;99.90;;;;;;4405061;32;20122;-69
2022/06/29 06:25:14;;;;;;;0.65;0.55;;;21.70;99.90;;;;;;4423053;32;20122;-68
2022/06/29 06:27:39;;;;;;;0.30;0.30;;;21.80;99.90;;;;;;4423954;32;20836;-68
2022/06/29 06:30:05;;;;;;;1.52;0.70;;;21.80;99.90;;;;;;4401058;32;20096;-68
2022/06/29 06:32:31;;;;;;;5.57;1.05;;;21.80;99.90;;;;;;4397613;32;20452;-68
2022/06/29 06:34:56;;;;;;;0.30;0.30;;;21.80;99.90;;;;;;4394791;32;20131;-68
2022/06/29 06:37:22;;;;;;;1.55;0.77;;;21.90;99.90;;;;;;4405444;32;20470;-68
2022/06/29 06:41:47;;;;;;;0.30;0.30;;;22.00;99.90;;;;;;4424674;32;20073;-69
2022/06/29 06:42:33;;;;;;;0.20;0.20;;;22.00;99.90;;;;;;4414491;32;20089;-68
2022/06/29 06:44:58;;;;;;;0.20;0.20;;;22.00;99.90;;;;;;4426134;32;20597;-69
2022/06/29 06:47:24;;;;;;;0.30;0.30;;;22.10;99.90;;;;;;4425690;32;20068;-69
2022/06/29 06:49:49;;;;;;;0.80;0.50;;;22.10;99.90;;;;;;4404723;32;20081;-68
2022/06/29 06:52:17;;;;;;;0.30;0.30;;;22.30;99.90;;;;;;4409958;32;20814;-68
2022/06/29 06:54:44;;;;;;;0.25;0.25;;;22.40;99.90;;;;;;4416134;32;20631;-68
2022/06/29 06:57:10;;;;;;;0.30;0.30;;;22.50;99.90;;;;;;4424723;32;20143;-68
2022/06/29 06:59:36;;;;;;;0.55;0.50;;;22.60;99.90;;;;;;4409520;32;20749;-68
2022/06/29 07:02:02;;;;;;;0.25;0.25;;;22.60;99.70;;;;;;4398261;32;20309;-68
2022/06/29 07:04:28;;;;;;;0.20;0.20;;;22.60;99.90;;;;;;4393233;32;20354;-68
2022/06/29 07:06:53;;;;;;;0.20;0.20;;;22.60;99.90;;;;;;4409526;32;20105;-69
2022/06/29 07:09:19;;;;;;;0.30;0.30;;;22.60;99.90;;;;;;4422308;32;20231;-69
2022/06/29 07:11:45;;;;;;;0.50;0.50;;;22.60;99.90;;;;;;4429826;32;20096;-69
2022/06/29 07:14:11;;;;;;;0.20;0.20;;;22.60;99.90;;;;;;4428263;32;20110;-69
2022/06/29 07:16:36;;;;;;;0.17;0.17;;;22.60;99.90;;;;;;4426813;32;20183;-68
2022/06/29 07:19:02;;;;;;;0.52;0.52;;;22.60;99.90;;;;;;4408884;32;20245;-68
2022/06/29 07:21:27;;;;;;;0.20;0.20;;;22.60;99.90;;;;;;4409345;32;20260;-68
2022/06/29 07:23:58;;;;;;;0.20;0.20;;;22.60;99.90;;;;;;4415453;32;20103;-68
2022/06/29 07:26:24;;;;;;;0.30;0.30;;;22.70;99.90;;;;;;4427829;32;20127;-69
2022/06/29 07:28:49;;;;;;;0.20;0.20;;;22.80;99.90;;;;;;4415767;32;20816;-68
2022/06/29 07:31:15;;;;;;;0.32;0.32;;;22.80;99.90;;;;;;4403781;32;20101;-69
2022/06/29 07:33:40;;;;;;;0.20;0.20;;;22.80;99.90;;;;;;4396790;32;20903;-69
2022/06/29 07:36:06;;;;;;;0.28;0.28;;;22.80;99.90;;;;;;4404573;32;20088;-69
2022/06/29 07:38:32;;;;;;;0.30;0.30;;;22.90;99.90;;;;;;4414036;32;20101;-69
2022/06/29 07:40:59;;;;;;;0.20;0.20;;;22.90;99.90;;;;;;4425099;32;20619;-69
2022/06/29 07:43:24;;;;;;;0.20;0.20;;;22.90;99.90;;;;;;4419568;32;20361;-69
2022/06/29 07:45:50;;;;;;;0.20;0.20;;;23.00;99.90;;;;;;4425138;32;20260;-69
2022/06/29 07:48:15;;;;;;;2.65;0.50;;;23.10;99.30;;;;;;4415040;32;21260;-69
2022/06/29 07:50:41;;;;;;;0.32;0.30;;;23.20;99.90;;;;;;4402384;32;20089;-69
2022/06/29 07:53:06;;;;;;;0.20;0.20;;;23.20;99.50;;;;;;4405947;32;20306;-69
2022/06/29 07:55:32;;;;;;;0.30;0.30;;;23.20;98.80;;;;;;4413470;32;20316;-69
2022/06/29 07:57:58;;;;;;;0.20;0.20;;;23.30;98.50;;;;;;4420577;32;20085;-69
2022/06/29 08:00:23;;;;;;;0.30;0.30;;;23.50;98.10;;;;;;4395195;32;20116;-69
2022/06/29 08:02:49;;;;;;;0.20;0.20;;;23.70;96.90;;;;;;4387545;32;20448;-69
2022/06/29 08:05:14;;;;;;;0.30;0.30;;;23.80;96.50;;;;;;4401473;32;20158;-69
2022/06/29 08:07:39;;;;;;;0.20;0.20;;;23.90;96.30;;;;;;4415347;32;20254;-70
2022/06/29 08:10:08;;;;;;;3.20;0.93;;;23.90;96.30;;;;;;4411499;32;20642;-70
2022/06/29 08:12:35;;;;;;;0.28;0.22;;;23.90;95.50;;;;;;4418729;32;20077;-70
2022/06/29 08:15:00;;;;;;;0.22;0.22;;;23.90;95.50;;;;;;4416669;32;20104;-68
2022/06/29 08:17:26;;;;;;;0.30;0.30;;;24.00;96.10;;;;;;4421724;32;20405;-68
2022/06/29 08:19:52;;;;;;;0.10;0.10;;;24.30;95.30;;;;;;4398711;32;20088;-68
2022/06/29 08:22:17;;;;;;;0.20;0.20;;;24.40;94.00;;;;;;4398909;32;20104;-69
2022/06/29 08:24:43;;;;;;;4.28;1.35;;;24.60;93.10;;;;;;4414665;32;20626;-69
2022/06/29 08:27:08;;;;;;;0.60;0.40;;;24.70;93.90;;;;;;4418684;32;20104;-69
2022/06/29 08:29:34;;;;;;;0.20;0.20;;;24.70;90.70;;;;;;4403887;32;20683;-69
2022/06/29 08:31:59;;;;;;;0.20;0.20;;;24.70;89.80;;;;;;4399368;32;20183;-69
2022/06/29 08:34:40;;;;;;;0.10;0.10;;;24.60;86.30;;;;;;4391502;32;20614;-70
2022/06/29 08:37:06;;;;;;;0.20;0.20;;;24.40;88.10;;;;;;4417714;32;20877;-69
2022/06/29 08:39:32;;;;;;;0.10;0.10;;;24.40;87.40;;;;;;4416417;32;20151;-69
2022/06/29 08:42:03;;;;;;;0.25;0.25;;;24.50;87.40;;;;;;4417569;32;20156;-68
2022/06/29 08:44:32;;;;;;;0.20;0.20;;;24.70;85.90;;;;;;4422170;32;20069;-68
2022/06/29 08:46:58;;;;;;;0.15;0.15;;;24.80;84.00;;;;;;4421213;32;20068;-68
2022/06/29 08:49:24;;;;;;;0.20;0.20;;;24.80;85.00;;;;;;4398653;32;20097;-68
2022/06/29 08:51:52;;;;;;;0.20;0.20;;;24.90;86.10;;;;;;4400010;32;20082;-69
2022/06/29 08:54:18;;;;;;;0.52;0.47;;;25.00;84.80;;;;;;4406414;32;20528;-69
2022/06/29 08:56:44;;;;;;;0.28;0.20;;;25.10;82.70;;;;;;4419825;32;20092;-69
2022/06/29 08:59:11;;;;;;;0.43;0.32;;;25.20;83.20;;;;;;4400357;32;20086;-69
2022/06/29 09:01:37;;;;;;;0.20;0.20;;;25.10;84.30;;;;;;4385883;32;20650;-68
2022/06/29 09:04:02;;;;;;;0.20;0.20;;;25.20;83.90;;;;;;4377071;32;20141;-70
2022/06/29 09:06:28;;;;;;;0.45;0.45;;;25.20;85.30;;;;;;4400927;32;20569;-68
2022/06/29 09:08:53;;;;;;;0.20;0.20;;;25.10;84.30;;;;;;4411044;32;20202;-68
2022/06/29 09:11:28;;;;;;;0.40;0.40;;;25.00;82.40;;;;;;4419951;32;20109;-68
2022/06/29 09:14:12;;;;;;;0.20;0.20;;;24.90;83.50;;;;;;4419017;32;20092;-68
2022/06/29 09:16:58;;;;;;;0.30;0.30;;;24.80;84.00;;;;;;4409334;32;20092;-68
2022/06/29 09:19:29;;;;;;;0.20;0.20;;;24.90;85.40;;;;;;4384413;32;20631;-69
2022/06/29 09:21:57;;;;;;;0.17;0.17;;;25.00;86.60;;;;;;4395791;32;20514;-68
2022/06/29 09:24:26;;;;;;;2.08;0.93;;;24.90;84.30;;;;;;4408171;32;20374;-69
2022/06/29 09:26:53;;;;;;;0.65;0.30;;;24.80;85.10;;;;;;4416037;32;20183;-68
2022/06/29 09:29:23;;;;;;;0.30;0.22;;;24.70;87.00;;;;;;4397442;32;20281;-69
2022/06/29 09:32:07;;;;;;;0.40;0.40;;;24.60;87.00;;;;;;4390597;32;20355;-68
2022/06/29 09:34:35;;;;;;;1.85;0.82;;;24.80;88.70;;;;;;4390541;32;20389;-68
2022/06/29 09:37:03;;;;;;;0.28;0.28;;;25.10;88.00;;;;;;4404684;32;20614;-68
2022/06/29 09:39:48;;;;;;;5.18;0.35;;;25.40;86.70;;;;;;4413476;32;20562;-68
2022/06/29 09:42:16;;;;;;;0.10;0.10;;;25.40;87.00;;;;;;4410533;32;20092;-68
2022/06/29 09:44:42;;;;;;;0.30;0.30;;;25.40;86.60;;;;;;4422836;32;20120;-68
2022/06/29 09:47:15;;;;;;;0.10;0.10;;;25.30;87.00;;;;;;4415701;32;20162;-68
2022/06/29 09:49:42;;;;;;;0.13;0.13;;;25.20;89.20;;;;;;4393569;32;20962;-68
2022/06/29 09:52:08;;;;;;;0.20;0.20;;;25.10;83.90;;;;;;4387666;32;20803;-68
2022/06/29 09:54:40;;;;;;;0.10;0.10;;;24.90;84.00;;;;;;4408141;32;21143;-68
2022/06/29 09:57:07;;;;;;;0.10;0.10;;;24.90;86.00;;;;;;4416144;32;20136;-68
2022/06/29 10:02:55;;;;;;;0.25;0.25;;;24.80;85.40;;;;;;4380899;32;20215;-68
2022/06/29 10:05:12;;;;;;;0.20;0.20;;;24.90;86.50;;;;;;4396362;32;20263;-68
2022/06/29 10:07:41;;;;;;;0.10;0.10;;;24.90;85.20;;;;;;4406885;32;20393;-68
2022/06/29 10:10:09;;;;;;;2.10;0.57;;;24.80;86.80;;;;;;4418236;32;20408;-68
2022/06/29 10:13:39;;;;;;;0.20;0.20;;;24.70;87.60;;;;;;4411085;32;20403;-69
2022/06/29 10:16:00;;;;;;;0.47;0.47;;;24.70;90.00;;;;;;4405844;32;20142;-69
2022/06/29 10:18:47;;;;;;;0.20;0.20;;;24.80;88.70;;;;;;4403861;32;20077;-69
2022/06/29 10:21:17;;;;;;;0.10;0.10;;;24.80;87.90;;;;;;4390343;32;20394;-69
2022/06/29 10:23:46;;;;;;;0.20;0.20;;;24.90;87.80;;;;;;4394476;32;20131;-69
2022/06/29 10:26:32;;;;;;;0.20;0.20;;;24.80;88.70;;;;;;4414219;32;20386;-69
2022/06/29 10:29:18;;;;;;;0.10;0.10;;;24.90;88.90;;;;;;4400037;32;20644;-69
2022/06/29 10:31:56;;;;;;;0.13;0.13;;;24.90;88.60;;;;;;4388566;32;20327;-69
2022/06/29 10:34:32;;;;;;;0.20;0.20;;;25.00;89.50;;;;;;4385155;32;20235;-68
2022/06/29 10:37:15;;;;;;;0.28;0.28;;;24.90;88.20;;;;;;4400003;32;20133;-68
2022/06/29 10:39:48;;;;;;;0.10;0.10;;;25.00;87.60;;;;;;4418959;32;20053;-69
2022/06/29 10:43:09;;;;;;;0.20;0.20;;;25.00;87.50;;;;;;4407223;32;20105;-70
2022/06/29 10:45:32;;;;;;;0.73;0.50;;;25.10;87.30;;;;;;4410377;32;20105;-70
2022/06/29 10:48:05;;;;;;;1.95;0.88;;;25.20;89.10;;;;;;4404216;32;20485;-70
2022/06/29 10:50:31;;;;;;;2.40;1.05;;;25.10;86.80;;;;;;4394168;32;20101;-70
2022/06/29 10:53:03;;;;;;;0.30;0.30;;;25.00;87.10;;;;;;4388929;32;20068;-67
2022/06/29 10:55:30;;;;;;;0.10;0.10;;;25.00;87.00;;;;;;4419024;32;20137;-70
2022/06/29 10:57:57;;;;;;;0.20;0.20;;;24.90;88.20;;;;;;4405173;32;20430;-70
2022/06/29 11:00:25;;;;;;;0.20;0.20;;;24.90;87.40;;;;;;4385424;32;20125;-69
2022/06/29 11:02:51;;;;;;;0.20;0.20;;;24.90;88.70;;;;;;4376470;32;20362;-70
2022/06/29 11:05:17;;;;;;;0.10;0.10;;;24.90;85.40;;;;;;4398354;32;20312;-69
2022/06/29 11:12:02;;;;;;;0.10;0.10;;;24.90;81.90;;;;;;4414180;32;20077;-69
2022/06/29 11:13:26;;;;;;;0.17;0.17;;;24.70;83.00;;;;;;4410156;32;20313;-69
2022/06/29 11:15:54;;;;;;;0.20;0.20;;;24.70;83.50;;;;;;4418785;32;20121;-69
2022/06/29 11:18:22;;;;;;;0.10;0.10;;;24.70;83.50;;;;;;4397809;32;20439;-69
2022/06/29 11:20:49;;;;;;;0.10;0.10;;;24.90;83.60;;;;;;4391392;32;20526;-69
2022/06/29 11:23:18;;;;;;;0.55;0.40;;;24.90;83.40;;;;;;4391067;32;20086;-69
2022/06/29 11:25:47;;;;;;;0.10;0.10;;;24.90;84.20;;;;;;4420959;32;20172;-69
2022/06/29 11:28:16;;;;;;;0.20;0.20;;;25.00;86.50;;;;;;4407835;32;20820;-70
2022/06/29 11:31:01;;;;;;;17.27;0.32;;;25.10;84.50;;;;;;4387790;32;20077;-69
2022/06/29 11:33:29;;;;;;;0.32;0.32;;;25.20;85.00;;;;;;4375872;32;20662;-70
2022/06/29 11:35:55;;;;;;;0.20;0.20;;;25.30;84.70;;;;;;4404720;32;20134;-70
2022/06/29 11:38:27;;;;;;;0.30;0.30;;;25.30;83.70;;;;;;4409542;32;20094;-68
2022/06/29 11:40:54;;;;;;;0.70;0.57;;;25.40;84.00;;;;;;4415769;32;20408;-69
2022/06/29 11:43:20;;;;;;;0.10;0.10;;;25.60;83.20;;;;;;4415067;32;20093;-69
2022/06/29 11:45:48;;;;;;;0.20;0.20;;;26.00;83.30;;;;;;4411224;32;20328;-69
2022/06/29 11:48:23;;;;;;;0.10;0.10;;;26.50;82.50;;;;;;4400959;32;20318;-70
2022/06/29 11:50:52;;;;;;;0.10;0.10;;;26.90;81.30;;;;;;4383988;32;20387;-69
2022/06/29 11:53:39;;;;;;;0.10;0.10;;;27.10;81.20;;;;;;4392013;32;20077;-69
2022/06/29 11:56:11;;;;;;;0.10;0.10;;;27.40;79.70;;;;;;4409534;32;20061;-70
2022/06/29 11:58:39;;;;;;;0.03;0.03;;;27.10;80.00;;;;;;4399712;32;20721;-69
2022/06/29 12:01:09;;;;;;;0.20;0.20;;;27.00;82.20;;;;;;4381136;32;20513;-70
2022/06/29 12:03:35;;;;;;;0.10;0.10;;;27.10;81.90;;;;;;4374541;32;20240;-69
2022/06/29 12:06:02;;;;;;;0.10;0.10;;;27.30;79.40;;;;;;4406163;32;20093;-69
2022/06/29 12:08:27;;;;;;;0.52;0.40;;;26.90;79.00;;;;;;4408895;32;20077;-69
2022/06/29 12:10:53;;;;;;;0.10;0.10;;;26.90;81.40;;;;;;4409605;32;20567;-69
2022/06/29 12:13:19;;;;;;;0.10;0.10;;;26.90;79.90;;;;;;4412202;32;20568;-69
2022/06/29 12:15:44;;;;;;;0.13;0.13;;;26.80;77.40;;;;;;4421228;32;20143;-69
2022/06/29 12:18:11;;;;;;;0.13;0.13;;;26.60;78.00;;;;;;4404280;32;20089;-70
2022/06/29 12:20:36;;;;;;;0.17;0.17;;;26.60;77.30;;;;;;4399767;32;20827;-70
2022/06/29 12:23:01;;;;;;;0.32;0.17;;;26.50;75.90;;;;;;4396126;32;20080;-70
2022/06/29 12:25:27;;;;;;;0.10;0.10;;;26.40;74.70;;;;;;4421312;32;20572;-69
2022/06/29 12:27:52;;;;;;;0.55;0.52;;;26.30;74.20;;;;;;4413329;32;20109;-70
2022/06/29 12:30:18;;;;;;;0.20;0.20;;;26.20;74.60;;;;;;4392486;32;20110;-69
2022/06/29 12:32:43;;;;;;;0.10;0.10;;;26.10;75.20;;;;;;4385165;32;20326;-69
2022/06/29 12:35:09;;;;;;;0.10;0.10;;;26.10;74.30;;;;;;4407172;32;20540;-69
2022/06/29 12:37:34;;;;;;;0.10;0.10;;;26.00;73.70;;;;;;4413974;32;20494;-69
2022/06/29 12:40:00;;;;;;;0.90;0.20;;;25.90;74.30;;;;;;4416568;32;20485;-70
2022/06/29 12:42:25;;;;;;;0.20;0.20;;;25.80;74.60;;;;;;4419068;32;20334;-69
2022/06/29 12:44:51;;;;;;;0.10;0.10;;;26.00;75.20;;;;;;4423316;32;20073;-69
2022/06/29 12:47:16;;;;;;;0.10;0.10;;;26.20;74.90;;;;;;4416484;32;20086;-69
2022/06/29 12:49:42;;;;;;;0.22;0.22;;;26.00;76.10;;;;;;4394429;32;20805;-69
2022/06/29 12:52:07;;;;;;;1.25;0.30;;;26.10;77.40;;;;;;4395475;32;20137;-69
2022/06/29 12:54:33;;;;;;;0.20;0.20;;;26.20;75.60;;;;;;4420367;32;20066;-69
2022/06/29 12:56:59;;;;;;;0.20;0.20;;;26.30;76.60;;;;;;4418031;32;20089;-69
2022/06/29 12:59:24;;;;;;;0.10;0.10;;;26.40;76.70;;;;;;4400223;32;20462;-69